createdAt,value
2019-01-30T00:00:11.146Z,7.07
2019-01-30T00:02:52.054Z,8.10
2019-01-30T00:05:32.859Z,7.75
2019-01-30T00:08:13.736Z,7.05
2019-01-30T00:10:54.787Z,7.62
2019-01-30T00:13:35.418Z,8.27
2019-01-30T00:16:16.320Z,7.85
2019-01-30T00:18:56.918Z,7.30
2019-01-30T00:21:37.599Z,8.27
2019-01-30T00:24:18.643Z,7.87
2019-01-30T00:26:59.383Z,7.85
2019-01-30T00:29:40.169Z,7.60
2019-01-30T00:32:20.737Z,8.97
2019-01-30T00:35:01.269Z,8.45
2019-01-30T00:37:42.116Z,8.13
2019-01-30T00:40:23.311Z,7.83
2019-01-30T00:43:03.795Z,7.85
2019-01-30T00:45:44.312Z,8.70
2019-01-30T00:48:24.781Z,6.80
2019-01-30T00:51:05.477Z,6.92
2019-01-30T00:53:46.498Z,7.45
2019-01-30T00:56:27.083Z,7.85
2019-01-30T00:59:07.964Z,7.15
2019-01-30T01:01:48.575Z,7.15
2019-01-30T01:04:29.502Z,7.95
2019-01-30T01:07:10.143Z,6.12
2019-01-30T01:09:50.806Z,6.57
2019-01-30T01:12:31.474Z,7.20
2019-01-30T01:15:12.124Z,6.15
2019-01-30T01:17:52.602Z,5.77
2019-01-30T01:20:33.429Z,5.87
2019-01-30T01:23:14.179Z,7.00
2019-01-30T01:25:54.764Z,5.75
2019-01-30T01:28:35.753Z,6.00
2019-01-30T01:31:16.637Z,6.10
2019-01-30T01:33:57.651Z,7.10
2019-01-30T01:36:38.134Z,6.97
2019-01-30T01:39:19.026Z,7.97
2019-01-30T01:41:59.742Z,9.43
2019-01-30T01:44:40.379Z,9.38
2019-01-30T01:47:21.158Z,9.40
2019-01-30T01:50:01.725Z,11.00
2019-01-30T01:52:42.205Z,8.03
2019-01-30T01:55:23.230Z,10.58
2019-01-30T01:58:03.757Z,8.60
2019-01-30T02:00:44.643Z,9.45
2019-01-30T02:03:25.243Z,10.20
2019-01-30T02:06:05.847Z,10.13
2019-01-30T02:08:46.698Z,9.73
2019-01-30T02:11:27.275Z,9.80
2019-01-30T02:14:07.743Z,10.77
2019-01-30T02:16:48.448Z,9.70
2019-01-30T02:19:28.807Z,9.83
2019-01-30T02:22:09.878Z,9.33
2019-01-30T02:24:50.346Z,10.43
2019-01-30T02:27:31.330Z,11.53
2019-01-30T02:30:11.594Z,9.93
2019-01-30T02:32:52.291Z,9.50
2019-01-30T02:35:32.955Z,9.00
2019-01-30T02:38:13.275Z,10.03
2019-01-30T02:40:53.967Z,9.90
2019-01-30T02:43:34.762Z,9.33
2019-01-30T02:46:15.318Z,10.78
2019-01-30T02:48:56.282Z,11.08
2019-01-30T02:51:36.835Z,12.10
2019-01-30T02:54:17.438Z,10.75
2019-01-30T02:56:58.118Z,12.70
2019-01-30T02:59:38.773Z,11.85
2019-01-30T03:02:22.602Z,12.00
2019-01-30T03:05:03.327Z,10.43
2019-01-30T03:07:44.026Z,10.15
2019-01-30T03:10:24.688Z,11.28
2019-01-30T03:13:05.614Z,9.60
2019-01-30T03:15:46.250Z,9.68
2019-01-30T03:18:26.943Z,10.80
2019-01-30T03:21:07.830Z,11.93
2019-01-30T03:23:48.475Z,11.18
2019-01-30T03:26:29.177Z,11.17
2019-01-30T03:29:09.910Z,10.43
2019-01-30T03:31:51.060Z,10.97
2019-01-30T03:34:31.580Z,11.03
2019-01-30T03:37:12.281Z,10.70
2019-01-30T03:39:52.786Z,13.00
2019-01-30T03:42:33.364Z,10.03
2019-01-30T03:45:13.950Z,10.70
2019-01-30T03:47:54.925Z,11.33
2019-01-30T03:50:36.015Z,11.48
2019-01-30T03:53:16.511Z,12.25
2019-01-30T03:55:57.282Z,11.55
2019-01-30T03:58:38.179Z,11.05
2019-01-30T04:01:26.474Z,11.08
2019-01-30T04:04:01.044Z,12.23
2019-01-30T04:06:41.647Z,12.88
2019-01-30T04:09:22.379Z,12.50
2019-01-30T04:12:03.265Z,11.08
2019-01-30T04:14:43.898Z,11.78
2019-01-30T04:17:24.394Z,12.18
2019-01-30T04:20:05.046Z,11.03
2019-01-30T04:22:45.614Z,12.47
2019-01-30T04:25:26.327Z,10.93
2019-01-30T04:28:06.695Z,11.55
2019-01-30T04:30:47.522Z,10.70
2019-01-30T04:33:27.980Z,9.63
2019-01-30T04:36:08.754Z,11.57
2019-01-30T04:38:49.366Z,11.95
2019-01-30T04:41:29.891Z,10.98
2019-01-30T04:44:10.664Z,12.00
2019-01-30T04:46:51.071Z,10.27
2019-01-30T04:49:31.526Z,11.10
2019-01-30T04:52:12.391Z,11.97
2019-01-30T04:54:52.956Z,14.33
2019-01-30T04:57:33.756Z,13.70
2019-01-30T05:00:14.502Z,13.55
2019-01-30T05:02:55.515Z,12.97
2019-01-30T05:05:36.270Z,13.60
2019-01-30T05:08:17.047Z,15.72
2019-01-30T05:10:57.895Z,16.02
2019-01-30T05:13:38.712Z,13.43
2019-01-30T05:16:19.956Z,14.98
2019-01-30T05:19:00.710Z,15.37
2019-01-30T05:21:41.330Z,13.20
2019-01-30T05:24:22.150Z,13.50
2019-01-30T05:27:02.997Z,12.87
2019-01-30T05:29:43.824Z,13.38
2019-01-30T05:32:24.534Z,14.57
2019-01-30T05:35:05.330Z,13.72
2019-01-30T05:37:45.971Z,13.43
2019-01-30T05:40:26.696Z,13.83
2019-01-30T05:43:07.498Z,14.40
2019-01-30T05:45:48.177Z,13.35
2019-01-30T05:48:28.986Z,13.90
2019-01-30T05:51:09.786Z,13.25
2019-01-30T05:53:50.758Z,15.05
2019-01-30T05:56:31.542Z,14.70
2019-01-30T05:59:12.323Z,12.93
2019-01-30T06:01:52.953Z,13.35
2019-01-30T06:04:33.690Z,15.00
2019-01-30T06:07:14.507Z,13.83
2019-01-30T06:09:55.233Z,15.30
2019-01-30T06:12:35.862Z,15.90
2019-01-30T06:15:16.748Z,16.57
2019-01-30T06:17:57.081Z,18.17
2019-01-30T06:20:38.103Z,16.40
2019-01-30T06:23:18.502Z,18.00
2019-01-30T06:25:59.289Z,16.30
2019-01-30T06:28:40.094Z,15.85
2019-01-30T06:31:20.731Z,18.30
2019-01-30T06:34:01.459Z,19.77
2019-01-30T06:36:42.419Z,16.70
2019-01-30T06:39:23.456Z,17.65
2019-01-30T06:42:03.790Z,17.32
2019-01-30T06:44:44.607Z,16.82
2019-01-30T06:47:25.233Z,17.70
2019-01-30T06:50:05.739Z,16.82
2019-01-30T06:52:46.418Z,17.12
2019-01-30T06:55:26.916Z,17.62
2019-01-30T06:58:07.509Z,17.77
2019-01-30T07:00:48.396Z,18.17
2019-01-30T07:03:29.057Z,17.62
2019-01-30T07:06:09.757Z,16.73
2019-01-30T07:08:50.571Z,17.77
2019-01-30T07:11:31.118Z,16.65
2019-01-30T07:14:11.805Z,17.60
2019-01-30T07:16:52.377Z,16.42
2019-01-30T07:19:33.599Z,18.30
2019-01-30T07:22:14.318Z,20.63
2019-01-30T07:24:54.956Z,17.15
2019-01-30T07:27:35.558Z,18.17
2019-01-30T07:30:16.084Z,17.32
2019-01-30T07:32:56.826Z,17.87
2019-01-30T07:35:37.957Z,17.80
2019-01-30T07:38:18.414Z,19.10
2019-01-30T07:40:58.835Z,18.00
2019-01-30T07:43:39.501Z,18.60
2019-01-30T07:46:20.574Z,16.87
2019-01-30T07:49:00.888Z,17.62
2019-01-30T07:51:41.712Z,16.47
2019-01-30T07:54:22.377Z,16.95
2019-01-30T07:57:03.099Z,17.57
2019-01-30T07:59:43.801Z,16.20
2019-01-30T08:02:24.499Z,15.47
2019-01-30T08:05:05.555Z,16.48
2019-01-30T08:07:45.990Z,15.10
2019-01-30T08:10:26.841Z,15.13
2019-01-30T08:13:07.221Z,15.80
2019-01-30T08:15:47.734Z,15.77
2019-01-30T08:18:28.437Z,16.67
2019-01-30T08:21:09.047Z,17.27
2019-01-30T08:23:49.905Z,18.43
2019-01-30T08:26:30.470Z,17.42
2019-01-30T08:29:11.530Z,17.60
2019-01-30T08:31:52.522Z,19.75
2019-01-30T08:34:32.937Z,18.82
2019-01-30T08:37:13.908Z,20.73
2019-01-30T08:39:54.493Z,20.40
2019-01-30T08:42:35.209Z,18.93
2019-01-30T08:45:16.241Z,18.87
2019-01-30T08:47:57.039Z,19.43
2019-01-30T08:50:37.526Z,18.53
2019-01-30T08:53:18.409Z,19.20
2019-01-30T08:55:58.998Z,18.60
2019-01-30T08:58:39.664Z,19.40
2019-01-30T09:01:20.389Z,19.87
2019-01-30T09:04:01.002Z,19.27
2019-01-30T09:06:41.591Z,18.70
2019-01-30T09:09:22.110Z,18.30
2019-01-30T09:12:02.822Z,17.80
2019-01-30T09:14:43.536Z,16.90
2019-01-30T09:17:24.234Z,15.13
2019-01-30T09:20:04.890Z,13.47
2019-01-30T09:22:45.507Z,14.37
2019-01-30T09:25:26.220Z,14.17
2019-01-30T09:28:06.814Z,14.67
2019-01-30T09:30:47.477Z,13.83
2019-01-30T09:33:28.175Z,16.00
2019-01-30T09:36:09.021Z,15.10
2019-01-30T09:38:49.986Z,14.33
2019-01-30T09:41:30.506Z,16.53
2019-01-30T09:44:11.011Z,15.43
2019-01-30T09:46:51.762Z,14.37
2019-01-30T09:49:32.515Z,14.37
2019-01-30T09:52:13.449Z,14.07
2019-01-30T09:54:54.460Z,14.60
2019-01-30T09:57:35.172Z,15.30
2019-01-30T10:00:15.902Z,15.03
2019-01-30T10:02:56.875Z,14.57
2019-01-30T10:05:37.606Z,14.00
2019-01-30T10:08:18.050Z,15.10
2019-01-30T10:10:58.914Z,15.13
2019-01-30T10:13:39.538Z,13.37
2019-01-30T10:16:20.122Z,14.07
2019-01-30T10:19:00.803Z,16.30
2019-01-30T10:21:41.489Z,14.03
2019-01-30T10:24:22.490Z,13.70
2019-01-30T10:27:03.508Z,14.30
2019-01-30T10:29:43.990Z,14.63
2019-01-30T10:32:24.866Z,12.80
2019-01-30T10:35:05.316Z,14.53
2019-01-30T10:37:46.482Z,12.87
2019-01-30T10:40:27.485Z,12.63
2019-01-30T10:43:08.353Z,12.97
2019-01-30T10:45:49.070Z,13.48
2019-01-30T10:48:29.914Z,12.97
2019-01-30T10:51:10.662Z,12.93
2019-01-30T10:53:51.554Z,12.90
2019-01-30T10:56:32.599Z,13.70
2019-01-30T10:59:13.697Z,13.43
2019-01-30T11:01:54.530Z,12.97
2019-01-30T11:04:35.196Z,14.10
2019-01-30T11:07:15.958Z,13.13
2019-01-30T11:09:56.455Z,12.80
2019-01-30T11:12:37.183Z,12.73
2019-01-30T11:15:17.848Z,11.77
2019-01-30T11:17:58.807Z,12.47
2019-01-30T11:20:39.648Z,12.73
2019-01-30T11:23:20.614Z,11.37
2019-01-30T11:26:01.139Z,11.33
2019-01-30T11:28:42.194Z,12.47
2019-01-30T11:31:23.080Z,11.80
2019-01-30T11:34:07.535Z,13.70
2019-01-30T11:36:46.630Z,11.43
2019-01-30T11:39:27.554Z,11.40
2019-01-30T11:42:08.196Z,11.70
2019-01-30T11:44:48.898Z,11.40
2019-01-30T11:47:29.682Z,12.10
2019-01-30T11:50:10.432Z,13.00
2019-01-30T11:52:51.081Z,12.07
2019-01-30T11:55:32.098Z,12.73
2019-01-30T11:58:12.952Z,11.33
2019-01-30T12:00:57.084Z,12.23
2019-01-30T12:03:38.195Z,14.60
2019-01-30T12:06:18.925Z,11.57
2019-01-30T12:09:00.059Z,11.70
2019-01-30T12:14:23.139Z,13.40
2019-01-30T12:17:03.882Z,12.80
2019-01-30T12:19:44.538Z,10.57
2019-01-30T12:22:25.266Z,11.53
2019-01-30T12:25:06.318Z,12.90
2019-01-30T12:27:47.620Z,11.27
2019-01-30T12:30:28.537Z,10.53
2019-01-30T12:33:09.321Z,11.13
2019-01-30T12:35:50.545Z,11.47
2019-01-30T12:38:31.319Z,11.53
2019-01-30T12:41:12.406Z,11.80
2019-01-30T12:43:53.514Z,10.07
2019-01-30T12:46:34.666Z,12.10
2019-01-30T12:49:15.271Z,11.60
2019-01-30T12:51:56.034Z,11.63
2019-01-30T12:54:36.834Z,11.67
2019-01-30T12:57:17.530Z,10.30
2019-01-30T12:59:58.962Z,11.10
2019-01-30T13:02:39.943Z,10.57
2019-01-30T13:05:19.810Z,10.70
2019-01-30T13:08:07.795Z,11.43
2019-01-30T13:10:48.783Z,10.60
2019-01-30T13:13:29.751Z,10.83
2019-01-30T13:16:10.940Z,10.03
2019-01-30T13:18:51.358Z,9.20
2019-01-30T13:21:32.183Z,9.70
2019-01-30T13:24:13.437Z,8.70
2019-01-30T13:26:54.288Z,8.90
2019-01-30T13:29:34.890Z,8.10
2019-01-30T13:32:15.829Z,7.63
2019-01-30T13:34:56.586Z,8.63
2019-01-30T13:37:37.297Z,9.43
2019-01-30T13:40:18.040Z,8.00
2019-01-30T13:42:59.149Z,7.70
2019-01-30T13:45:39.926Z,8.10
2019-01-30T13:48:20.858Z,7.80
2019-01-30T13:51:01.572Z,8.90
2019-01-30T13:53:42.719Z,8.07
2019-01-30T13:56:23.638Z,8.57
2019-01-30T13:59:04.018Z,8.30
2019-01-30T14:01:44.644Z,8.43
2019-01-30T14:04:25.846Z,8.33
2019-01-30T14:07:06.776Z,7.17
2019-01-30T14:09:47.739Z,8.70
2019-01-30T14:12:28.864Z,8.33
2019-01-30T14:15:09.805Z,8.13
2019-01-30T14:17:51.324Z,8.30
2019-01-30T14:20:32.868Z,8.80
2019-01-30T14:23:14.486Z,8.60
2019-01-30T14:25:55.185Z,9.27
2019-01-30T14:28:35.943Z,9.23
2019-01-30T14:31:16.529Z,8.70
2019-01-30T14:33:57.705Z,9.20
2019-01-30T14:36:38.459Z,8.90
2019-01-30T14:39:19.086Z,8.20
2019-01-30T14:41:59.753Z,9.40
2019-01-30T14:44:40.974Z,8.90
2019-01-30T14:47:21.675Z,8.90
2019-01-30T14:50:02.538Z,9.30
2019-01-30T14:52:44.306Z,10.30
2019-01-30T14:55:25.552Z,9.27
2019-01-30T14:58:06.084Z,10.17
2019-01-30T15:00:46.748Z,9.17
2019-01-30T15:03:27.474Z,8.43
2019-01-30T15:06:08.003Z,9.90
2019-01-30T15:08:48.979Z,10.60
2019-01-30T15:11:29.654Z,9.77
2019-01-30T15:14:10.092Z,9.90
2019-01-30T15:16:50.676Z,10.23
2019-01-30T15:19:31.050Z,9.90
2019-01-30T15:22:12.175Z,10.13
2019-01-30T15:24:52.993Z,10.07
2019-01-30T15:27:33.347Z,10.73
2019-01-30T15:30:13.886Z,10.80
2019-01-30T15:32:54.333Z,9.60
2019-01-30T15:35:35.010Z,8.60
2019-01-30T15:38:15.543Z,9.47
2019-01-30T15:40:56.202Z,10.60
2019-01-30T15:43:36.610Z,11.20
2019-01-30T15:46:17.139Z,9.37
2019-01-30T15:48:57.841Z,9.30
2019-01-30T15:51:38.873Z,10.63
2019-01-30T15:54:19.209Z,8.93
2019-01-30T15:57:00.130Z,10.63
2019-01-30T15:59:41.784Z,10.57
2019-01-30T16:02:23.575Z,9.77
2019-01-30T16:05:04.586Z,10.63
2019-01-30T16:07:45.330Z,11.40
2019-01-30T16:10:26.214Z,10.40
2019-01-30T16:13:07.575Z,11.67
2019-01-30T16:15:48.395Z,14.77
2019-01-30T16:18:29.358Z,12.20
2019-01-30T16:21:10.195Z,10.63
2019-01-30T16:23:52.326Z,11.20
2019-01-30T16:26:33.153Z,10.33
2019-01-30T16:29:14.070Z,10.83
2019-01-30T16:31:54.692Z,10.17
2019-01-30T16:34:35.828Z,11.27
2019-01-30T16:37:16.505Z,11.77
2019-01-30T16:39:57.193Z,10.50
2019-01-30T16:42:38.392Z,10.37
2019-01-30T16:45:19.038Z,9.93
2019-01-30T16:47:59.784Z,10.63
2019-01-30T16:50:40.748Z,9.63
2019-01-30T16:53:21.247Z,10.40
2019-01-30T16:56:02.307Z,10.27
2019-01-30T16:58:42.822Z,10.17
2019-01-30T17:01:23.682Z,9.90
2019-01-30T17:04:04.498Z,10.23
2019-01-30T17:06:45.264Z,10.47
2019-01-30T17:09:26.114Z,10.70
2019-01-30T17:12:06.881Z,11.40
2019-01-30T17:14:47.636Z,11.23
2019-01-30T17:17:28.408Z,12.33
2019-01-30T17:20:09.573Z,11.10
2019-01-30T17:22:50.266Z,13.97
2019-01-30T17:25:30.643Z,10.40
2019-01-30T17:28:11.105Z,10.13
2019-01-30T17:30:51.924Z,12.10
2019-01-30T17:33:32.439Z,11.07
2019-01-30T17:36:18.516Z,11.03
2019-01-30T17:38:55.590Z,10.90
2019-01-30T17:41:36.265Z,10.93
2019-01-30T17:44:16.883Z,10.80
2019-01-30T17:46:57.558Z,10.70
2019-01-30T17:49:38.850Z,10.67
2019-01-30T17:52:19.547Z,9.97
2019-01-30T17:55:00.325Z,11.63
2019-01-30T17:57:40.978Z,11.00
2019-01-30T18:00:25.603Z,11.90
2019-01-30T18:03:06.542Z,11.90
2019-01-30T18:05:47.598Z,11.47
2019-01-30T18:08:28.756Z,9.60
2019-01-30T18:11:09.667Z,11.60
2019-01-30T18:13:50.423Z,12.10
2019-01-30T18:16:31.347Z,10.90
2019-01-30T18:19:11.710Z,10.50
2019-01-30T18:21:52.404Z,11.87
2019-01-30T18:24:33.597Z,10.53
2019-01-30T18:27:14.730Z,11.97
2019-01-30T18:29:55.198Z,12.43
2019-01-30T18:32:36.022Z,12.07
2019-01-30T18:35:17.153Z,15.90
2019-01-30T18:37:58.305Z,14.33
2019-01-30T18:40:39.462Z,12.57
2019-01-30T18:43:20.113Z,12.23
2019-01-30T18:46:00.862Z,13.30
2019-01-30T18:48:41.951Z,14.20
2019-01-30T18:51:22.956Z,16.20
2019-01-30T18:54:03.587Z,12.20
2019-01-30T18:56:44.090Z,16.03
2019-01-30T18:59:24.937Z,11.30
2019-01-30T19:02:05.896Z,12.43
2019-01-30T19:04:46.362Z,13.43
2019-01-30T19:07:27.334Z,11.87
2019-01-30T19:10:08.085Z,12.40
2019-01-30T19:12:48.446Z,12.73
2019-01-30T19:15:29.126Z,13.23
2019-01-30T19:18:10.326Z,11.97
2019-01-30T19:20:50.986Z,13.40
2019-01-30T19:23:31.685Z,18.00
2019-01-30T19:26:11.125Z,15.60
2019-01-30T19:28:59.094Z,13.53
2019-01-30T19:31:47.364Z,13.97
2019-01-30T19:34:35.738Z,13.50
2019-01-30T19:37:24.007Z,15.27
2019-01-30T19:40:12.177Z,14.53
2019-01-30T19:43:00.250Z,14.13
2019-01-30T19:45:48.234Z,15.23
2019-01-30T19:48:36.536Z,15.30
2019-01-30T19:51:24.600Z,18.57
2019-01-30T19:57:19.698Z,26.40
2019-01-30T20:03:37.306Z,12.90
2019-01-30T20:06:25.303Z,13.00
2019-01-30T20:09:32.356Z,11.60
2019-01-30T20:12:13.832Z,12.07
2019-01-30T20:14:54.445Z,18.93
2019-01-30T20:17:34.822Z,16.40
2019-01-30T20:20:15.663Z,15.20
2019-01-30T20:22:56.878Z,17.10
2019-01-30T20:25:37.786Z,13.90
2019-01-30T20:28:18.478Z,14.30
2019-01-30T20:31:01.206Z,13.97
2019-01-30T20:33:41.393Z,12.53
2019-01-30T20:36:22.206Z,11.70
2019-01-30T20:39:02.855Z,12.10
2019-01-30T20:41:43.374Z,11.03
2019-01-30T20:44:24.456Z,10.57
2019-01-30T20:47:05.795Z,11.40
2019-01-30T20:49:46.867Z,11.50
2019-01-30T20:52:27.786Z,11.20
2019-01-30T20:55:08.346Z,11.77
2019-01-30T20:57:49.187Z,11.00
2019-01-30T21:00:29.753Z,11.43
2019-01-30T21:03:10.542Z,10.67
2019-01-30T21:05:50.918Z,10.13
2019-01-30T21:08:32.083Z,11.30
2019-01-30T21:11:13.474Z,10.37
2019-01-30T21:13:54.699Z,10.30
2019-01-30T21:16:35.415Z,11.17
2019-01-30T21:19:14.499Z,12.70
2019-01-30T21:22:02.814Z,12.00
2019-01-30T21:24:51.266Z,11.90
2019-01-30T21:27:39.813Z,12.97
2019-01-30T21:30:29.011Z,15.30
2019-01-30T21:33:17.002Z,12.03
2019-01-30T21:36:04.999Z,12.57
2019-01-30T21:38:53.227Z,12.37
2019-01-30T21:41:43.053Z,11.23
2019-01-30T21:44:30.920Z,9.73
2019-01-30T21:47:19.166Z,9.97
2019-01-30T21:50:07.549Z,10.87
2019-01-30T21:52:55.526Z,9.53
2019-01-30T21:55:43.797Z,10.07
2019-01-30T21:58:32.044Z,9.10
2019-01-30T22:01:20.764Z,9.47
2019-01-30T22:04:09.736Z,7.33
2019-01-30T22:06:57.705Z,7.60
2019-01-30T22:09:46.046Z,6.70
2019-01-30T22:12:34.018Z,7.00
2019-01-30T22:15:22.143Z,6.40
2019-01-30T22:18:10.126Z,6.27
2019-01-30T22:20:58.096Z,5.33
2019-01-30T22:23:46.146Z,5.80
2019-01-30T22:26:34.396Z,4.77
2019-01-30T22:29:22.642Z,4.07
2019-01-30T22:32:10.894Z,5.23
2019-01-30T22:34:58.946Z,3.53
2019-01-30T22:37:46.931Z,3.80
2019-01-30T22:40:35.213Z,3.40
2019-01-30T22:43:23.464Z,3.53
2019-01-30T22:46:11.807Z,3.50
2019-01-30T22:48:59.792Z,3.90
2019-01-30T22:51:49.571Z,4.80
2019-01-30T22:54:37.886Z,4.60
2019-01-30T22:57:26.123Z,5.10
2019-01-30T23:04:05.511Z,7.30
2019-01-30T23:07:13.194Z,7.67
2019-01-30T23:10:20.666Z,9.93
2019-01-30T23:13:28.115Z,10.17
2019-01-30T23:16:21.058Z,9.37
2019-01-30T23:19:28.276Z,9.03
2019-01-30T23:22:35.472Z,10.93
2019-01-30T23:25:42.690Z,11.10
2019-01-30T23:28:49.884Z,10.70
2019-01-30T23:31:57.091Z,9.47
2019-01-30T23:35:04.298Z,10.37
2019-01-30T23:38:11.493Z,10.20
2019-01-30T23:41:18.770Z,11.20
2019-01-30T23:44:25.991Z,11.80
2019-01-30T23:47:18.940Z,10.10
2019-01-30T23:50:26.490Z,10.73
2019-01-30T23:53:33.930Z,10.40
2019-01-30T23:56:45.992Z,9.33
2019-01-30T23:59:53.199Z,8.63
